Time;durP1;ratioP1;P1;durP2;ratioP2;P2;SDS_P1;SDS_P2;PMS_P1;PMS_P2;Temp;Humidity;BMP_temperature;BMP_pressure;BME280_temperature;BME280_humidity;BME280_pressure;Samples;Min_cycle;Max_cycle;Signal;HPM_P1;HPM_P2
2023/05/01 00:01:26;;;;;;;9.25;3.72;;;7.70;99.90;;;;;;4846351;29;20504;-80
2023/05/01 00:03:53;;;;;;;8.50;4.25;;;7.70;99.90;;;;;;4845814;29;20042;-80
2023/05/01 00:06:19;;;;;;;9.27;3.92;;;7.70;99.90;;;;;;4846082;29;20510;-81
2023/05/01 00:08:46;;;;;;;7.30;3.63;;;7.70;99.90;;;;;;4862010;29;20046;-81
2023/05/01 00:11:13;;;;;;;8.18;3.85;;;7.70;99.90;;;;;;4864004;29;20044;-81
2023/05/01 00:13:40;;;;;;;8.55;4.00;;;7.60;99.90;;;;;;4864012;29;20140;-80
2023/05/01 00:16:11;;;;;;;12.93;4.38;;;7.60;99.90;;;;;;4864494;29;20049;-80
2023/05/01 00:18:38;;;;;;;7.28;4.03;;;7.60;99.90;;;;;;4879472;29;20452;-80
2023/05/01 00:21:05;;;;;;;11.20;4.72;;;7.60;99.90;;;;;;4863566;29;20123;-80
2023/05/01 00:23:35;;;;;;;10.23;3.67;;;7.60;99.90;;;;;;4864018;29;20060;-81
2023/05/01 00:26:01;;;;;;;10.50;4.25;;;7.50;99.90;;;;;;4863721;29;20579;-81
2023/05/01 00:28:28;;;;;;;8.10;4.30;;;7.50;99.90;;;;;;4879049;29;20042;-81
2023/05/01 00:30:56;;;;;;;10.40;4.18;;;7.50;99.90;;;;;;4859779;29;20411;-80
2023/05/01 00:33:23;;;;;;;7.95;4.05;;;7.50;99.90;;;;;;4845508;29;20083;-81
2023/05/01 00:35:51;;;;;;;7.60;4.25;;;7.40;99.90;;;;;;4845289;29;20041;-81
2023/05/01 00:38:18;;;;;;;9.35;4.00;;;7.40;99.90;;;;;;4845830;29;20574;-80
2023/05/01 00:40:45;;;;;;;10.38;4.15;;;7.40;99.90;;;;;;4845011;29;20053;-80
2023/05/01 00:43:12;;;;;;;7.03;3.65;;;7.40;99.90;;;;;;4845705;29;20527;-81
2023/05/01 00:45:43;;;;;;;7.80;3.85;;;7.40;99.90;;;;;;4845329;29;20087;-80
2023/05/01 00:48:10;;;;;;;7.90;3.95;;;7.40;99.90;;;;;;4845318;29;20049;-80
2023/05/01 00:50:37;;;;;;;6.95;3.88;;;7.30;99.90;;;;;;4846496;29;20034;-80
2023/05/01 00:53:04;;;;;;;11.63;4.15;;;7.30;99.90;;;;;;4878517;29;20044;-80
2023/05/01 00:55:32;;;;;;;9.98;4.00;;;7.20;99.90;;;;;;4863480;29;20041;-80
2023/05/01 00:58:01;;;;;;;9.73;4.13;;;7.20;99.90;;;;;;4878361;29;20415;-81
2023/05/01 01:00:28;;;;;;;8.13;3.58;;;7.20;99.90;;;;;;4878972;29;20120;-80
2023/05/01 01:02:55;;;;;;;10.73;4.05;;;7.10;99.90;;;;;;4878466;29;20534;-80
2023/05/01 01:05:26;;;;;;;9.30;4.15;;;7.10;99.90;;;;;;4878459;29;20049;-80
2023/05/01 01:08:18;;;;;;;7.10;4.32;;;7.10;99.90;;;;;;4878796;29;20049;-80
2023/05/01 01:11:08;;;;;;;10.63;4.80;;;7.10;99.90;;;;;;4878395;29;20126;-80
2023/05/01 01:14:02;;;;;;;6.90;3.90;;;7.00;99.90;;;;;;4863034;29;20054;-81
2023/05/01 01:16:53;;;;;;;11.23;4.07;;;6.90;99.90;;;;;;4875076;29;20061;-80
2023/05/01 01:19:39;;;;;;;8.15;4.78;;;6.90;99.90;;;;;;4860338;29;20050;-80
2023/05/01 01:22:19;;;;;;;7.80;3.78;;;6.80;99.90;;;;;;4860007;29;20046;-80
2023/05/01 01:25:08;;;;;;;9.23;4.22;;;6.80;99.90;;;;;;4875075;29;20045;-80
2023/05/01 01:27:56;;;;;;;11.15;4.50;;;6.70;99.90;;;;;;4875050;29;20038;-80
2023/05/01 01:30:35;;;;;;;12.50;4.10;;;6.70;99.90;;;;;;4875057;29;20124;-81
2023/05/01 01:33:23;;;;;;;9.32;4.57;;;6.60;99.90;;;;;;4859443;29;20062;-80
2023/05/01 01:35:59;;;;;;;8.13;3.95;;;6.60;99.90;;;;;;4866736;29;20411;-81
2023/05/01 01:38:41;;;;;;;8.90;4.20;;;6.60;99.90;;;;;;4878123;29;20045;-80
2023/05/01 01:41:23;;;;;;;8.43;4.32;;;6.60;99.90;;;;;;4893089;29;20209;-80
2023/05/01 01:44:00;;;;;;;8.85;4.07;;;6.50;99.90;;;;;;4877638;29;20044;-80
2023/05/01 01:46:27;;;;;;;7.15;4.03;;;6.50;99.90;;;;;;4877797;29;20046;-80
2023/05/01 01:48:56;;;;;;;8.27;4.53;;;6.50;99.90;;;;;;4862428;29;20046;-80
2023/05/01 01:51:25;;;;;;;10.00;4.63;;;6.40;99.90;;;;;;4877840;29;20041;-80
2023/05/01 01:53:55;;;;;;;9.18;4.65;;;6.40;99.90;;;;;;4859320;29;20046;-80
2023/05/01 01:56:26;;;;;;;9.05;4.63;;;6.40;99.90;;;;;;4877610;29;20045;-80
2023/05/01 01:58:54;;;;;;;9.98;4.70;;;6.30;99.90;;;;;;4893191;29;20132;-80
2023/05/01 02:01:22;;;;;;;10.52;4.75;;;6.30;99.90;;;;;;4862713;29;20041;-80
2023/05/01 02:03:50;;;;;;;10.65;4.10;;;6.30;99.90;;;;;;4862344;29;20702;-80
2023/05/01 02:06:17;;;;;;;9.88;4.70;;;6.30;99.90;;;;;;4877176;29;20052;-80
2023/05/01 02:08:47;;;;;;;8.80;4.57;;;6.20;99.90;;;;;;4862513;29;20056;-80
2023/05/01 02:11:17;;;;;;;8.88;4.13;;;6.20;99.90;;;;;;4877465;29;20041;-80
2023/05/01 02:13:45;;;;;;;11.65;4.70;;;6.20;99.90;;;;;;4877636;29;20056;-80
2023/05/01 02:16:13;;;;;;;10.10;4.50;;;6.20;99.90;;;;;;4862029;29;20845;-80
2023/05/01 02:18:40;;;;;;;10.10;4.85;;;6.10;99.90;;;;;;4859007;29;20447;-80
2023/05/01 02:21:08;;;;;;;10.77;4.55;;;6.10;99.90;;;;;;4858746;29;20647;-80
2023/05/01 02:23:36;;;;;;;8.95;4.32;;;6.10;99.90;;;;;;4859072;29;20404;-80
2023/05/01 02:26:03;;;;;;;8.45;4.53;;;6.10;99.90;;;;;;4858682;29;20049;-80
2023/05/01 02:28:31;;;;;;;11.77;4.70;;;6.00;99.90;;;;;;4858540;29;20046;-80
2023/05/01 02:30:58;;;;;;;10.05;4.43;;;6.00;99.90;;;;;;4873972;29;20106;-80
2023/05/01 02:33:24;;;;;;;9.88;4.82;;;6.00;99.90;;;;;;4859080;29;20558;-80
2023/05/01 02:35:51;;;;;;;8.45;4.90;;;5.90;99.90;;;;;;4873908;29;20038;-80
2023/05/01 02:38:18;;;;;;;15.82;4.90;;;5.90;99.90;;;;;;4861042;29;20049;-80
2023/05/01 02:40:50;;;;;;;10.88;4.90;;;5.90;99.90;;;;;;4862277;29;20093;-80
2023/05/01 02:43:20;;;;;;;9.13;5.07;;;5.90;99.90;;;;;;4876812;29;20048;-80
2023/05/01 02:45:50;;;;;;;9.98;4.68;;;5.80;99.90;;;;;;4877132;29;20498;-80
2023/05/01 02:48:22;;;;;;;10.85;4.72;;;5.80;99.90;;;;;;4861570;29;20053;-80
2023/05/01 02:50:50;;;;;;;10.93;4.57;;;5.80;99.90;;;;;;4876816;29;20041;-80
2023/05/01 02:53:17;;;;;;;7.85;4.40;;;5.80;99.90;;;;;;4861070;29;20490;-80
2023/05/01 02:55:44;;;;;;;9.10;4.50;;;5.70;99.90;;;;;;4862000;29;20046;-80
2023/05/01 02:58:18;;;;;;;8.82;4.72;;;5.70;99.90;;;;;;4845921;29;20052;-80
2023/05/01 03:00:46;;;;;;;13.02;4.97;;;5.70;99.90;;;;;;4861726;29;20041;-80
2023/05/01 03:03:12;;;;;;;11.73;4.95;;;5.70;99.90;;;;;;4861580;29;20553;-80
2023/05/01 03:05:40;;;;;;;13.18;5.25;;;5.70;99.90;;;;;;4861616;29;20081;-80
2023/05/01 03:08:07;;;;;;;9.52;4.93;;;5.70;99.90;;;;;;4861377;29;20048;-80
2023/05/01 03:10:34;;;;;;;11.75;4.82;;;5.70;99.90;;;;;;4876711;29;20105;-80
2023/05/01 03:13:02;;;;;;;12.32;5.38;;;5.60;99.90;;;;;;4874178;29;20062;-80
2023/05/01 03:15:29;;;;;;;9.93;5.35;;;5.60;99.90;;;;;;4832127;29;20057;-80
2023/05/01 03:17:55;;;;;;;10.30;4.85;;;5.60;99.90;;;;;;4846756;29;20495;-80
2023/05/01 03:20:23;;;;;;;10.57;5.22;;;5.60;99.90;;;;;;4846631;29;20057;-80
2023/05/01 03:22:50;;;;;;;11.90;5.57;;;5.60;99.90;;;;;;4862199;29;20102;-80
2023/05/01 03:25:16;;;;;;;12.13;5.13;;;5.60;99.90;;;;;;4875238;29;20054;-80
2023/05/01 03:27:43;;;;;;;10.23;4.93;;;5.60;99.90;;;;;;4865013;29;20049;-80
2023/05/01 03:30:10;;;;;;;10.38;5.25;;;5.70;99.90;;;;;;4849373;29;20056;-80
2023/05/01 03:32:37;;;;;;;10.18;5.00;;;5.50;99.90;;;;;;4864705;29;20053;-80
2023/05/01 03:35:04;;;;;;;10.70;5.55;;;5.50;99.90;;;;;;4895124;29;20037;-80
2023/05/01 03:37:32;;;;;;;10.00;5.15;;;5.50;99.90;;;;;;4849120;29;20053;-80
2023/05/01 03:39:59;;;;;;;9.30;5.20;;;5.50;99.90;;;;;;4850113;29;20045;-80
2023/05/01 03:42:26;;;;;;;10.18;5.57;;;5.50;99.90;;;;;;4849212;29;20045;-80
2023/05/01 03:44:53;;;;;;;11.18;5.18;;;5.40;99.90;;;;;;4849494;29;20041;-80
2023/05/01 03:47:19;;;;;;;9.98;5.30;;;5.40;99.90;;;;;;4848827;29;20045;-80
2023/05/01 03:49:46;;;;;;;11.88;5.45;;;5.40;99.90;;;;;;4863910;29;20056;-80
2023/05/01 03:52:13;;;;;;;11.55;5.18;;;5.30;99.90;;;;;;4879217;29;20045;-80
2023/05/01 03:54:40;;;;;;;9.63;4.82;;;5.30;99.90;;;;;;4879652;29;20041;-80
2023/05/01 03:57:06;;;;;;;9.95;5.28;;;5.30;99.90;;;;;;4864395;29;20038;-80
2023/05/01 03:59:34;;;;;;;12.10;5.63;;;5.30;99.90;;;;;;4879237;29;20072;-80
2023/05/01 04:02:01;;;;;;;13.48;5.75;;;5.30;99.90;;;;;;4864354;29;20049;-80
2023/05/01 04:04:28;;;;;;;10.30;5.00;;;5.30;99.90;;;;;;4863938;29;20499;-80
2023/05/01 04:06:55;;;;;;;9.80;5.20;;;5.20;99.90;;;;;;4879486;29;20485;-80
2023/05/01 04:09:21;;;;;;;11.63;5.50;;;5.20;99.90;;;;;;4860171;29;20132;-80
2023/05/01 04:11:48;;;;;;;12.85;5.20;;;5.20;99.90;;;;;;4845846;29;20045;-80
2023/05/01 04:14:15;;;;;;;10.45;5.20;;;5.20;99.90;;;;;;4845414;29;20089;-80
2023/05/01 04:16:42;;;;;;;13.43;5.28;;;5.10;99.90;;;;;;4861134;29;20045;-80
2023/05/01 04:19:09;;;;;;;10.15;5.40;;;5.10;99.90;;;;;;4860621;29;20068;-80
2023/05/01 04:21:36;;;;;;;10.18;5.15;;;5.10;99.90;;;;;;4845965;29;20088;-80
2023/05/01 04:24:02;;;;;;;9.02;5.30;;;5.10;99.90;;;;;;4846027;29;20085;-80
2023/05/01 04:26:29;;;;;;;11.40;5.60;;;5.10;99.90;;;;;;4875680;29;20102;-80
2023/05/01 04:28:56;;;;;;;12.85;5.25;;;5.20;99.90;;;;;;4863591;29;20503;-80
2023/05/01 04:31:22;;;;;;;11.85;5.65;;;5.20;99.90;;;;;;4863314;29;20050;-80
2023/05/01 04:33:49;;;;;;;10.52;5.15;;;5.20;99.90;;;;;;4863480;29;20124;-80
2023/05/01 04:36:16;;;;;;;9.85;5.40;;;5.20;99.90;;;;;;4878639;29;20048;-80
2023/05/01 04:38:43;;;;;;;11.23;5.28;;;5.20;99.90;;;;;;4860493;29;20045;-80
2023/05/01 04:41:10;;;;;;;11.93;5.63;;;5.30;99.90;;;;;;4875859;29;20046;-80
2023/05/01 04:43:36;;;;;;;13.23;5.50;;;5.30;99.90;;;;;;4860206;29;20117;-80
2023/05/01 04:46:03;;;;;;;15.27;5.90;;;5.30;99.90;;;;;;4860339;29;20110;-80
2023/05/01 04:48:30;;;;;;;11.75;5.90;;;5.30;99.90;;;;;;4844936;29;20128;-80
2023/05/01 04:50:57;;;;;;;12.43;5.53;;;5.40;99.90;;;;;;4860149;29;20042;-80
2023/05/01 04:53:24;;;;;;;9.52;5.35;;;5.40;99.90;;;;;;4860091;29;20038;-80
2023/05/01 04:55:50;;;;;;;13.88;6.65;;;5.50;99.90;;;;;;4875456;29;20045;-80
2023/05/01 04:58:17;;;;;;;10.10;5.40;;;5.50;99.90;;;;;;4874896;29;20042;-80
2023/05/01 05:00:44;;;;;;;11.23;5.80;;;5.60;99.90;;;;;;4875243;29;20034;-80
2023/05/01 05:03:10;;;;;;;9.68;5.50;;;6.00;99.90;;;;;;4860054;29;20049;-80
2023/05/01 05:05:37;;;;;;;10.70;5.78;;;5.70;99.90;;;;;;4860199;29;20616;-80
2023/05/01 05:08:05;;;;;;;13.13;5.57;;;5.80;99.90;;;;;;4860169;29;20048;-80
2023/05/01 05:10:31;;;;;;;9.57;5.55;;;5.90;99.90;;;;;;4863368;29;20048;-80
2023/05/01 05:12:58;;;;;;;18.80;6.45;;;6.00;99.90;;;;;;4847948;29;20053;-80
2023/05/01 05:15:25;;;;;;;13.57;6.50;;;6.00;99.90;;;;;;4863106;29;20830;-80
2023/05/01 05:17:51;;;;;;;17.38;6.97;;;6.10;99.90;;;;;;4848141;29;20526;-80
2023/05/01 05:20:18;;;;;;;13.77;7.03;;;6.20;99.90;;;;;;4875045;29;20530;-80
2023/05/01 05:22:45;;;;;;;15.77;7.53;;;6.30;99.90;;;;;;4844496;29;20053;-80
2023/05/01 05:25:11;;;;;;;15.95;8.27;;;6.40;99.90;;;;;;4844838;29;20136;-80
2023/05/01 05:27:38;;;;;;;13.77;7.50;;;6.60;99.90;;;;;;4844373;29;20058;-80
2023/05/01 05:30:06;;;;;;;14.27;7.80;;;6.60;99.90;;;;;;4859447;29;20046;-80
2023/05/01 05:32:33;;;;;;;11.00;6.65;;;6.80;99.90;;;;;;4874397;29;20487;-80
2023/05/01 05:34:59;;;;;;;12.13;7.03;;;6.80;99.90;;;;;;4859448;29;20133;-80
2023/05/01 05:37:26;;;;;;;16.15;6.90;;;7.00;99.90;;;;;;4859342;29;20042;-80
2023/05/01 05:39:53;;;;;;;13.23;6.68;;;7.10;99.90;;;;;;4860860;29;20106;-80
2023/05/01 05:42:20;;;;;;;12.18;6.88;;;7.10;99.90;;;;;;4862743;29;20053;-80
2023/05/01 05:44:46;;;;;;;12.10;7.47;;;7.20;99.90;;;;;;4877716;29;20049;-80
2023/05/01 05:47:13;;;;;;;13.93;6.47;;;7.30;99.90;;;;;;4862524;29;20479;-80
2023/05/01 05:49:40;;;;;;;11.95;6.07;;;7.40;99.90;;;;;;4862288;29;20046;-80
2023/05/01 05:52:07;;;;;;;10.57;5.82;;;7.50;99.90;;;;;;4862343;29;20045;-80
2023/05/01 05:54:33;;;;;;;14.13;6.38;;;7.60;99.90;;;;;;4862098;29;20041;-80
2023/05/01 05:57:01;;;;;;;15.65;6.15;;;7.70;99.90;;;;;;4862410;29;20483;-80
2023/05/01 05:59:28;;;;;;;9.70;5.78;;;7.70;99.90;;;;;;4862221;29;20058;-80
2023/05/01 06:01:55;;;;;;;9.02;5.40;;;7.80;99.90;;;;;;4859110;29;20053;-80
2023/05/01 06:04:22;;;;;;;11.38;5.95;;;7.90;99.90;;;;;;4859251;29;20050;-80
2023/05/01 06:06:48;;;;;;;11.40;5.22;;;7.90;99.90;;;;;;4844107;29;20487;-80
2023/05/01 06:09:17;;;;;;;14.32;6.35;;;8.00;99.90;;;;;;4844353;29;20042;-80
2023/05/01 06:11:44;;;;;;;14.18;6.32;;;8.00;99.90;;;;;;4859436;29;20049;-80
2023/05/01 06:14:11;;;;;;;10.07;5.80;;;8.00;99.90;;;;;;4869970;29;20054;-80
2023/05/01 06:16:38;;;;;;;12.85;5.97;;;8.10;99.90;;;;;;4861865;29;20113;-80
2023/05/01 06:19:05;;;;;;;12.15;5.78;;;8.10;99.90;;;;;;4862898;29;20524;-79
2023/05/01 06:21:32;;;;;;;9.65;6.07;;;8.20;99.90;;;;;;4852555;29;20530;-80
2023/05/01 06:23:59;;;;;;;14.52;6.10;;;8.20;99.90;;;;;;4862052;29;20128;-80
2023/05/01 06:26:27;;;;;;;10.80;5.88;;;8.30;99.90;;;;;;4861936;29;20546;-80
2023/05/01 06:28:53;;;;;;;13.38;5.93;;;8.40;99.90;;;;;;4861645;29;20045;-80
2023/05/01 06:31:20;;;;;;;12.32;5.85;;;8.50;99.90;;;;;;4861815;29;20051;-80
2023/05/01 06:33:47;;;;;;;10.05;5.40;;;8.60;99.90;;;;;;4861335;29;20418;-80
2023/05/01 06:36:14;;;;;;;9.77;5.47;;;8.70;99.90;;;;;;4861969;29;20048;-80
2023/05/01 06:38:47;;;;;;;13.48;5.32;;;8.80;99.90;;;;;;4877115;29;20052;-80
2023/05/01 06:41:15;;;;;;;13.82;5.82;;;8.90;99.90;;;;;;4862851;29;20102;-80
2023/05/01 06:43:41;;;;;;;11.05;6.10;;;9.00;99.90;;;;;;4861558;29;20506;-80
2023/05/01 06:46:08;;;;;;;10.30;5.80;;;9.00;99.90;;;;;;4877044;29;20053;-80
2023/05/01 06:48:35;;;;;;;13.10;5.95;;;9.00;99.90;;;;;;4860660;29;20041;-80
2023/05/01 06:51:02;;;;;;;16.50;5.55;;;9.10;99.90;;;;;;4861192;29;20092;-80
2023/05/01 06:53:28;;;;;;;12.40;5.97;;;9.20;99.90;;;;;;4846244;29;20073;-79
2023/05/01 06:55:55;;;;;;;11.30;6.10;;;9.20;99.90;;;;;;4861193;29;20041;-80
2023/05/01 06:58:22;;;;;;;10.88;5.55;;;9.30;99.90;;;;;;4861468;29;20516;-80
2023/05/01 07:00:49;;;;;;;11.00;5.82;;;9.40;99.90;;;;;;4861129;29;20046;-80
2023/05/01 07:03:15;;;;;;;10.13;5.28;;;9.50;99.90;;;;;;4878976;29;20041;-80
2023/05/01 07:05:42;;;;;;;10.88;5.88;;;9.60;99.90;;;;;;4863430;29;20056;-80
2023/05/01 07:08:09;;;;;;;11.88;6.05;;;9.70;99.90;;;;;;4855766;29;20044;-80
2023/05/01 07:10:36;;;;;;;12.25;6.30;;;9.80;99.90;;;;;;4849911;29;20037;-81
2023/05/01 07:13:02;;;;;;;15.20;5.65;;;9.80;99.90;;;;;;4882353;29;20090;-80
2023/05/01 07:15:29;;;;;;;10.48;5.93;;;10.00;99.90;;;;;;4844978;29;20042;-81
2023/05/01 07:17:57;;;;;;;12.20;5.97;;;10.10;99.90;;;;;;4860904;29;20045;-81
2023/05/01 07:20:24;;;;;;;11.25;5.90;;;10.20;99.90;;;;;;4861349;29;20558;-81
2023/05/01 07:22:50;;;;;;;11.25;5.90;;;10.20;99.90;;;;;;4876033;29;20137;-81
2023/05/01 07:25:17;;;;;;;11.77;5.93;;;10.30;99.90;;;;;;4857605;29;20494;-81
2023/05/01 07:27:44;;;;;;;14.82;6.47;;;10.50;99.90;;;;;;4867234;29;20598;-82
2023/05/01 07:30:11;;;;;;;9.13;5.40;;;10.60;99.90;;;;;;4860632;29;20046;-82
2023/05/01 07:32:38;;;;;;;11.13;6.20;;;10.60;99.90;;;;;;4863325;29;20057;-82
2023/05/01 07:35:05;;;;;;;13.18;5.75;;;10.70;99.90;;;;;;4869520;29;20041;-82
2023/05/01 07:37:31;;;;;;;12.75;6.10;;;10.80;99.90;;;;;;4860572;29;20734;-82
2023/05/01 07:39:58;;;;;;;12.63;5.47;;;11.00;99.90;;;;;;4857423;29;20045;-81
2023/05/01 07:42:26;;;;;;;13.25;6.05;;;11.10;99.90;;;;;;4843677;29;20492;-82
2023/05/01 07:44:53;;;;;;;11.07;6.40;;;11.10;99.90;;;;;;4875407;29;20443;-82
2023/05/01 07:47:19;;;;;;;9.80;5.25;;;11.20;99.90;;;;;;4860883;29;20041;-82
2023/05/01 07:49:46;;;;;;;11.35;5.70;;;11.30;99.90;;;;;;4875799;29;20077;-81
2023/05/01 07:52:14;;;;;;;11.75;5.82;;;11.40;99.90;;;;;;4860475;29;20067;-82
2023/05/01 07:54:41;;;;;;;13.38;5.28;;;11.50;99.90;;;;;;4860780;29;20033;-82
2023/05/01 07:57:07;;;;;;;14.85;5.97;;;11.60;99.90;;;;;;4860688;29;20110;-82
2023/05/01 07:59:34;;;;;;;11.25;5.60;;;11.70;99.90;;;;;;4861891;29;20102;-82
2023/05/01 08:02:01;;;;;;;12.15;5.65;;;11.80;99.90;;;;;;4878706;29;20101;-82
2023/05/01 08:04:28;;;;;;;12.20;5.68;;;11.90;99.90;;;;;;4864004;29;20140;-82
2023/05/01 08:06:55;;;;;;;10.32;4.97;;;11.90;99.90;;;;;;4878968;29;20483;-82
2023/05/01 08:09:21;;;;;;;8.68;4.30;;;12.00;99.90;;;;;;4863893;29;20045;-82
2023/05/01 08:11:48;;;;;;;10.55;5.13;;;12.10;99.90;;;;;;4863460;29;20057;-82
2023/05/01 08:14:16;;;;;;;9.43;4.47;;;12.20;99.90;;;;;;4863457;29;20460;-82
2023/05/01 08:16:43;;;;;;;11.52;4.85;;;12.30;99.90;;;;;;4863437;29;20057;-82
2023/05/01 08:19:10;;;;;;;10.95;5.25;;;12.40;99.90;;;;;;4860283;29;20057;-82
2023/05/01 08:21:36;;;;;;;10.55;5.00;;;12.50;99.90;;;;;;4869881;29;20073;-82
2023/05/01 08:24:03;;;;;;;9.38;4.22;;;12.60;99.90;;;;;;4878739;29;20041;-82
2023/05/01 08:26:30;;;;;;;9.35;4.53;;;12.60;99.90;;;;;;4863684;29;20060;-82
2023/05/01 08:28:57;;;;;;;13.32;4.45;;;12.70;99.90;;;;;;4863217;29;20057;-82
2023/05/01 08:31:24;;;;;;;10.90;3.95;;;12.80;99.90;;;;;;4848583;29;20068;-82
2023/05/01 08:33:51;;;;;;;11.65;4.22;;;12.90;99.90;;;;;;4863538;29;20070;-82
2023/05/01 08:36:18;;;;;;;9.48;4.10;;;13.00;99.90;;;;;;4878622;29;20049;-82
2023/05/01 08:38:45;;;;;;;11.43;5.22;;;13.00;99.90;;;;;;4848090;29;20128;-81
2023/05/01 08:41:19;;;;;;;11.68;5.43;;;13.10;99.90;;;;;;4875623;29;20054;-82
2023/05/01 08:43:47;;;;;;;9.63;5.03;;;13.20;99.90;;;;;;4859588;29;20522;-82
2023/05/01 08:46:41;;;;;;;10.75;5.15;;;13.40;99.90;;;;;;4860060;29;20885;-83
2023/05/01 08:49:10;;;;;;;9.23;5.40;;;13.50;99.90;;;;;;4867822;29;20065;-82
2023/05/01 08:51:37;;;;;;;10.50;4.85;;;13.70;99.90;;;;;;4854628;29;20601;-82
2023/05/01 08:54:07;;;;;;;17.58;5.72;;;13.90;99.90;;;;;;4859479;29;20128;-82
2023/05/01 08:56:35;;;;;;;12.57;5.78;;;14.00;99.90;;;;;;4859813;29;20500;-82
2023/05/01 08:59:04;;;;;;;15.45;5.43;;;14.20;99.90;;;;;;4874728;29;20049;-82
2023/05/01 09:01:32;;;;;;;15.18;5.95;;;14.30;99.90;;;;;;4878116;29;20050;-82
2023/05/01 09:04:02;;;;;;;12.27;5.72;;;14.40;99.90;;;;;;4862494;29;20499;-81
2023/05/01 09:06:31;;;;;;;12.07;5.70;;;14.50;99.90;;;;;;4878127;29;20041;-82
2023/05/01 09:08:58;;;;;;;9.65;5.32;;;14.60;99.90;;;;;;4863229;29;20073;-82
2023/05/01 09:11:25;;;;;;;10.30;5.13;;;14.80;99.90;;;;;;4862252;29;20045;-82
2023/05/01 09:13:53;;;;;;;11.35;5.18;;;14.90;99.90;;;;;;4858737;29;20446;-82
2023/05/01 09:16:20;;;;;;;10.43;4.88;;;14.90;99.90;;;;;;4844907;29;20150;-82
2023/05/01 09:18:47;;;;;;;12.35;5.70;;;14.90;99.90;;;;;;4844558;29;20057;-82
2023/05/01 09:21:14;;;;;;;8.60;5.35;;;15.00;99.90;;;;;;4848527;29;20056;-82
2023/05/01 09:23:41;;;;;;;11.88;5.60;;;15.00;99.90;;;;;;4862703;29;20128;-82
2023/05/01 09:26:07;;;;;;;11.63;5.85;;;15.00;99.90;;;;;;4847301;29;20115;-82
2023/05/01 09:28:45;;;;;;;11.27;5.32;;;15.00;99.90;;;;;;4847054;29;20056;-82
2023/05/01 09:31:24;;;;;;;9.52;5.32;;;15.20;99.90;;;;;;4877596;29;20633;-82
2023/05/01 09:33:56;;;;;;;9.25;5.35;;;15.30;99.90;;;;;;4877836;29;20045;-82
2023/05/01 09:36:25;;;;;;;10.15;4.85;;;15.30;99.90;;;;;;4877489;29;20052;-82
2023/05/01 09:38:53;;;;;;;9.57;5.32;;;15.40;99.90;;;;;;4877669;29;20540;-82
2023/05/01 09:41:21;;;;;;;11.23;4.85;;;15.50;99.90;;;;;;4877911;29;20415;-82
2023/05/01 09:43:55;;;;;;;9.35;4.88;;;15.60;99.90;;;;;;4861513;29;20499;-82
2023/05/01 09:46:24;;;;;;;8.32;4.35;;;15.60;99.90;;;;;;4862736;29;20053;-82
2023/05/01 09:49:02;;;;;;;8.57;3.97;;;15.80;99.90;;;;;;4876913;29;20056;-82
2023/05/01 09:51:30;;;;;;;6.70;3.78;;;15.80;99.90;;;;;;4878051;29;20388;-83
2023/05/01 09:53:59;;;;;;;7.68;3.50;;;15.90;99.90;;;;;;4876356;29;20451;-82
2023/05/01 09:56:27;;;;;;;6.97;3.10;;;15.90;99.90;;;;;;4861402;29;20049;-82
2023/05/01 09:58:55;;;;;;;7.18;3.45;;;16.00;99.90;;;;;;4861341;29;20050;-82
2023/05/01 10:01:42;;;;;;;9.32;3.00;;;16.10;99.90;;;;;;4862264;29;20049;-82
2023/05/01 10:04:09;;;;;;;7.30;2.35;;;16.20;99.90;;;;;;4858440;29;20048;-82
2023/05/01 10:06:36;;;;;;;8.65;2.65;;;16.30;99.90;;;;;;4859128;29;20503;-82
2023/05/01 10:09:05;;;;;;;7.78;3.50;;;16.40;99.90;;;;;;4876510;29;20041;-82
2023/05/01 10:11:52;;;;;;;7.88;2.90;;;16.50;99.90;;;;;;4876854;29;20481;-82
2023/05/01 10:14:19;;;;;;;7.22;2.40;;;16.60;99.90;;;;;;4861029;29;20171;-82
2023/05/01 10:16:46;;;;;;;6.65;2.90;;;16.70;99.80;;;;;;4861824;29;20041;-82
2023/05/01 10:19:16;;;;;;;7.75;2.90;;;16.90;99.90;;;;;;4876427;29;20049;-82
2023/05/01 10:21:42;;;;;;;6.18;1.98;;;17.00;99.90;;;;;;4862008;29;20050;-82
2023/05/01 10:24:10;;;;;;;6.32;2.03;;;17.10;99.40;;;;;;4876328;29;20059;-81
2023/05/01 10:26:37;;;;;;;6.43;2.22;;;17.20;99.90;;;;;;4877109;29;20523;-81
2023/05/01 10:29:03;;;;;;;7.35;2.47;;;17.10;99.00;;;;;;4876056;29;20136;-80
2023/05/01 10:31:31;;;;;;;6.03;2.28;;;17.20;98.40;;;;;;4891715;29;20041;-80
2023/05/01 10:34:01;;;;;;;5.00;2.33;;;17.30;98.70;;;;;;4861605;29;20045;-81
2023/05/01 10:36:46;;;;;;;7.15;2.38;;;17.40;97.70;;;;;;4877034;29;20056;-81
2023/05/01 10:39:39;;;;;;;9.40;2.70;;;17.40;97.60;;;;;;4876274;29;20109;-81
2023/05/01 10:42:12;;;;;;;6.28;2.60;;;17.40;94.60;;;;;;4870159;29;20058;-80
2023/05/01 10:44:41;;;;;;;4.70;2.30;;;17.40;95.70;;;;;;4873236;29;20387;-81
2023/05/01 10:47:23;;;;;;;7.47;2.53;;;17.20;96.40;;;;;;4857580;29;20056;-80
2023/05/01 10:50:07;;;;;;;5.25;2.10;;;17.40;96.10;;;;;;4872590;29;20046;-81
2023/05/01 10:53:08;;;;;;;18.05;3.75;;;17.50;96.30;;;;;;4870358;29;20041;-81
2023/05/01 10:55:36;;;;;;;9.13;3.50;;;17.60;96.30;;;;;;4901781;29;20063;-81
2023/05/01 10:58:03;;;;;;;5.63;2.83;;;17.50;96.80;;;;;;4869301;29;20048;-81
2023/05/01 11:00:31;;;;;;;6.05;2.80;;;17.60;97.60;;;;;;4894716;29;20107;-80
2023/05/01 11:03:23;;;;;;;7.30;3.35;;;17.70;97.70;;;;;;4862131;29;20114;-80
2023/05/01 11:05:59;;;;;;;6.72;2.63;;;17.80;97.40;;;;;;4862089;29;20411;-80
2023/05/01 11:08:34;;;;;;;6.60;2.58;;;17.90;95.90;;;;;;4875729;29;20045;-80
2023/05/01 11:11:18;;;;;;;8.27;3.08;;;18.00;97.50;;;;;;4875998;29;20045;-81
2023/05/01 11:13:58;;;;;;;5.97;2.90;;;18.00;96.20;;;;;;4881981;29;20056;-82
2023/05/01 11:16:38;;;;;;;8.00;3.10;;;17.90;96.00;;;;;;4910319;29;20391;-82
2023/05/01 11:19:06;;;;;;;8.32;2.55;;;17.80;97.30;;;;;;4882070;29;20053;-82
2023/05/01 11:21:35;;;;;;;6.78;2.85;;;17.90;98.00;;;;;;4872356;29;20036;-82
2023/05/01 11:24:03;;;;;;;6.30;2.88;;;17.90;97.20;;;;;;4880954;29;20408;-82
2023/05/01 11:26:30;;;;;;;7.45;2.67;;;17.90;97.40;;;;;;4863390;29;20726;-82
2023/05/01 11:28:58;;;;;;;5.03;2.35;;;17.90;96.70;;;;;;4879285;29;20049;-82
2023/05/01 11:31:26;;;;;;;9.98;2.65;;;17.90;97.70;;;;;;4859719;29;20498;-82
2023/05/01 11:33:58;;;;;;;7.22;2.10;;;18.10;97.40;;;;;;4874760;29;20052;-82
2023/05/01 11:36:28;;;;;;;5.32;2.17;;;18.10;95.00;;;;;;4879636;29;20515;-82
2023/05/01 11:38:57;;;;;;;6.07;2.25;;;18.20;96.90;;;;;;4879773;29;20052;-82
2023/05/01 11:41:25;;;;;;;4.80;2.20;;;18.40;97.00;;;;;;4879174;29;20045;-82
2023/05/01 11:43:58;;;;;;;5.93;2.88;;;18.50;96.80;;;;;;4895112;29;20049;-82
2023/05/01 11:46:32;;;;;;;9.32;3.50;;;18.50;95.70;;;;;;4879860;29;20558;-82
2023/05/01 11:49:02;;;;;;;10.00;3.88;;;18.60;96.20;;;;;;4867215;29;20038;-82
2023/05/01 11:51:29;;;;;;;7.47;3.55;;;18.60;96.20;;;;;;4876753;29;20061;-82
2023/05/01 11:54:11;;;;;;;8.77;3.72;;;18.70;96.70;;;;;;4871047;29;20494;-82
2023/05/01 11:56:39;;;;;;;9.82;4.00;;;18.60;94.80;;;;;;4887908;29;20538;-82
2023/05/01 11:59:11;;;;;;;6.25;3.47;;;18.50;96.50;;;;;;4864781;29;20525;-82
2023/05/01 12:01:39;;;;;;;7.38;3.60;;;18.60;96.80;;;;;;4879906;29;20042;-81
2023/05/01 12:04:07;;;;;;;7.28;3.30;;;18.80;96.50;;;;;;4878416;29;20052;-82
2023/05/01 12:06:45;;;;;;;8.55;3.60;;;18.70;96.40;;;;;;4863887;29;20513;-82
2023/05/01 12:09:19;;;;;;;7.60;3.25;;;18.50;96.00;;;;;;4894111;29;20049;-82
2023/05/01 12:11:48;;;;;;;8.23;3.57;;;18.60;96.40;;;;;;4875957;29;20049;-82
2023/05/01 12:14:15;;;;;;;8.30;3.30;;;18.70;96.30;;;;;;4859889;29;20229;-83
2023/05/01 12:16:43;;;;;;;7.07;2.67;;;18.80;96.40;;;;;;4876000;29;20114;-83
2023/05/01 12:19:13;;;;;;;9.30;2.50;;;18.70;95.90;;;;;;4860087;29;20053;-82
2023/05/01 12:21:40;;;;;;;5.47;2.20;;;18.70;96.30;;;;;;4875982;29;20050;-83
2023/05/01 12:24:13;;;;;;;5.93;2.28;;;18.80;96.20;;;;;;4878508;29;20045;-83
2023/05/01 12:26:41;;;;;;;4.88;1.80;;;18.80;95.50;;;;;;4863695;29;20483;-82
2023/05/01 12:29:08;;;;;;;4.95;1.95;;;18.90;96.10;;;;;;4863046;29;20033;-82
2023/05/01 12:31:36;;;;;;;3.90;1.70;;;19.00;96.00;;;;;;4878867;29;20087;-82
2023/05/01 12:34:05;;;;;;;3.42;1.70;;;19.00;95.60;;;;;;4877936;29;20064;-82
2023/05/01 12:36:36;;;;;;;4.55;2.00;;;19.10;96.00;;;;;;4878662;29;20037;-82
2023/05/01 12:39:07;;;;;;;4.60;1.77;;;19.30;95.40;;;;;;4878088;29;20053;-82
2023/05/01 12:41:45;;;;;;;3.72;1.50;;;19.50;94.60;;;;;;4862998;29;20041;-83
2023/05/01 12:44:22;;;;;;;2.88;1.50;;;19.30;94.60;;;;;;4863023;29;20053;-83
2023/05/01 12:46:59;;;;;;;2.53;1.38;;;19.30;94.30;;;;;;4860070;29;20052;-83
2023/05/01 12:49:27;;;;;;;3.05;1.20;;;19.30;93.80;;;;;;4859341;29;20053;-82
2023/05/01 12:51:56;;;;;;;3.90;1.30;;;19.20;94.00;;;;;;4859660;29;20038;-82
2023/05/01 12:54:26;;;;;;;4.75;1.67;;;19.30;94.30;;;;;;4859205;29;20094;-82
2023/05/01 12:56:53;;;;;;;3.97;1.52;;;19.30;94.00;;;;;;4893029;29;20467;-82
2023/05/01 12:59:22;;;;;;;3.70;1.40;;;19.30;93.50;;;;;;4877720;29;20141;-83